sensor_id;sensor_type;location;lat;lon;timestamp;pressure;altitude;pressure_sealevel;temperature;humidity
55590;BME280;41452;42.780;23.116;2023-11-19T00:02:15;94282.66;;;2.21;98.30
55590;BME280;41452;42.780;23.116;2023-11-19T00:04:41;94253.44;;;2.13;97.79
55590;BME280;41452;42.780;23.116;2023-11-19T00:07:07;94218.53;;;1.79;98.02
55590;BME280;41452;42.780;23.116;2023-11-19T00:09:36;94209.59;;;1.66;97.64
55590;BME280;41452;42.780;23.116;2023-11-19T00:12:06;94323.75;;;2.39;97.59
55590;BME280;41452;42.780;23.116;2023-11-19T00:14:32;94271.69;;;2.04;98.74
55590;BME280;41452;42.780;23.116;2023-11-19T00:16:57;94278.63;;;2.04;98.33
55590;BME280;41452;42.780;23.116;2023-11-19T00:19:23;94312.75;;;2.37;98.22
55590;BME280;41452;42.780;23.116;2023-11-19T00:21:48;94226.66;;;1.76;98.20
55590;BME280;41452;42.780;23.116;2023-11-19T00:24:14;94241.03;;;1.93;98.08
55590;BME280;41452;42.780;23.116;2023-11-19T00:26:42;94322.41;;;2.28;98.34
55590;BME280;41452;42.780;23.116;2023-11-19T00:29:07;94272.47;;;2.05;98.25
55590;BME280;41452;42.780;23.116;2023-11-19T00:31:33;94269.41;;;1.86;98.93
55590;BME280;41452;42.780;23.116;2023-11-19T00:33:58;94305.25;;;2.27;98.69
55590;BME280;41452;42.780;23.116;2023-11-19T00:36:23;94333.31;;;2.39;98.04
55590;BME280;41452;42.780;23.116;2023-11-19T00:38:49;94326.78;;;2.43;97.78
55590;BME280;41452;42.780;23.116;2023-11-19T00:41:15;94333.56;;;2.44;98.02
55590;BME280;41452;42.780;23.116;2023-11-19T00:43:41;94304.25;;;2.28;97.94
55590;BME280;41452;42.780;23.116;2023-11-19T00:46:07;94323.03;;;2.45;97.65
55590;BME280;41452;42.780;23.116;2023-11-19T00:48:32;94300.16;;;2.19;98.68
55590;BME280;41452;42.780;23.116;2023-11-19T00:50:58;94298.72;;;2.32;97.11
55590;BME280;41452;42.780;23.116;2023-11-19T00:53:23;94335.81;;;2.32;97.69
55590;BME280;41452;42.780;23.116;2023-11-19T00:55:48;94331.72;;;2.23;98.22
55590;BME280;41452;42.780;23.116;2023-11-19T00:58:14;94345.03;;;2.35;98.11
55590;BME280;41452;42.780;23.116;2023-11-19T01:00:39;94348.06;;;2.38;97.66
55590;BME280;41452;42.780;23.116;2023-11-19T01:03:05;94345.66;;;2.37;97.46
55590;BME280;41452;42.780;23.116;2023-11-19T01:05:32;94298.63;;;2.25;97.31
55590;BME280;41452;42.780;23.116;2023-11-19T01:07:57;94342.16;;;2.30;98.14
55590;BME280;41452;42.780;23.116;2023-11-19T01:10:23;94331.81;;;2.30;97.91
55590;BME280;41452;42.780;23.116;2023-11-19T01:12:49;94302.38;;;2.07;98.14
55590;BME280;41452;42.780;23.116;2023-11-19T01:15:14;94339.03;;;2.34;98.76
55590;BME280;41452;42.780;23.116;2023-11-19T01:17:40;94299.34;;;2.04;98.27
55590;BME280;41452;42.780;23.116;2023-11-19T01:20:05;94347.34;;;2.30;97.29
55590;BME280;41452;42.780;23.116;2023-11-19T01:22:37;94326.78;;;2.28;96.60
55590;BME280;41452;42.780;23.116;2023-11-19T01:25:03;94344.13;;;2.27;97.09
55590;BME280;41452;42.780;23.116;2023-11-19T01:27:30;94305.44;;;1.96;96.77
55590;BME280;41452;42.780;23.116;2023-11-19T01:29:55;94348.78;;;2.17;97.01
55590;BME280;41452;42.780;23.116;2023-11-19T01:32:20;94337.13;;;2.13;97.12
55590;BME280;41452;42.780;23.116;2023-11-19T01:34:46;94337.50;;;2.10;96.77
55590;BME280;41452;42.780;23.116;2023-11-19T01:37:11;94321.97;;;2.10;96.54
55590;BME280;41452;42.780;23.116;2023-11-19T01:39:38;94282.19;;;1.73;96.06
55590;BME280;41452;42.780;23.116;2023-11-19T01:42:03;94284.28;;;1.78;96.86
55590;BME280;41452;42.780;23.116;2023-11-19T01:44:29;94305.09;;;1.99;95.83
55590;BME280;41452;42.780;23.116;2023-11-19T01:46:54;94286.47;;;1.81;96.12
55590;BME280;41452;42.780;23.116;2023-11-19T01:49:19;94311.31;;;1.90;96.35
55590;BME280;41452;42.780;23.116;2023-11-19T01:51:46;94322.66;;;2.04;96.43
55590;BME280;41452;42.780;23.116;2023-11-19T01:54:12;94353.69;;;2.12;96.22
55590;BME280;41452;42.780;23.116;2023-11-19T01:56:39;94341.97;;;2.16;95.95
55590;BME280;41452;42.780;23.116;2023-11-19T01:59:06;94346.34;;;2.16;95.85
55590;BME280;41452;42.780;23.116;2023-11-19T02:01:33;94241.06;;;1.40;95.01
55590;BME280;41452;42.780;23.116;2023-11-19T02:04:03;94320.19;;;1.96;95.74
55590;BME280;41452;42.780;23.116;2023-11-19T02:06:30;94265.50;;;1.76;95.76
55590;BME280;41452;42.780;23.116;2023-11-19T02:08:57;94309.63;;;2.12;95.21
55590;BME280;41452;42.780;23.116;2023-11-19T02:11:22;94339.94;;;2.26;95.17
55590;BME280;41452;42.780;23.116;2023-11-19T02:13:48;94307.66;;;1.84;96.57
55590;BME280;41452;42.780;23.116;2023-11-19T02:16:13;94346.06;;;1.96;96.42
55590;BME280;41452;42.780;23.116;2023-11-19T02:18:39;94334.16;;;1.86;96.56
55590;BME280;41452;42.780;23.116;2023-11-19T02:21:05;94331.59;;;2.01;96.63
55590;BME280;41452;42.780;23.116;2023-11-19T02:23:30;94350.47;;;2.10;95.96
55590;BME280;41452;42.780;23.116;2023-11-19T02:26:02;94303.19;;;1.78;96.93
55590;BME280;41452;42.780;23.116;2023-11-19T02:28:31;94265.38;;;1.54;96.25
55590;BME280;41452;42.780;23.116;2023-11-19T02:30:58;94347.03;;;1.95;96.33
55590;BME280;41452;42.780;23.116;2023-11-19T02:33:23;94343.56;;;2.02;97.00
55590;BME280;41452;42.780;23.116;2023-11-19T02:35:50;94345.56;;;2.15;96.32
55590;BME280;41452;42.780;23.116;2023-11-19T02:38:16;94292.84;;;1.78;96.79
55590;BME280;41452;42.780;23.116;2023-11-19T02:40:41;94352.50;;;2.00;96.25
55590;BME280;41452;42.780;23.116;2023-11-19T02:43:07;94360.22;;;2.08;96.22
55590;BME280;41452;42.780;23.116;2023-11-19T02:45:33;94358.41;;;2.23;96.57
55590;BME280;41452;42.780;23.116;2023-11-19T02:47:59;94277.91;;;1.65;96.54
55590;BME280;41452;42.780;23.116;2023-11-19T02:50:27;94348.59;;;2.19;96.83
55590;BME280;41452;42.780;23.116;2023-11-19T02:52:54;94286.81;;;1.63;97.42
55590;BME280;41452;42.780;23.116;2023-11-19T02:55:22;94344.47;;;1.95;97.88
55590;BME280;41452;42.780;23.116;2023-11-19T02:57:49;94359.13;;;2.17;97.41
55590;BME280;41452;42.780;23.116;2023-11-19T03:00:19;94356.44;;;2.25;95.81
55590;BME280;41452;42.780;23.116;2023-11-19T03:02:49;94327.06;;;2.03;96.08
55590;BME280;41452;42.780;23.116;2023-11-19T03:05:24;94361.91;;;2.31;96.29
55590;BME280;41452;42.780;23.116;2023-11-19T03:07:49;94335.06;;;1.94;95.89
55590;BME280;41452;42.780;23.116;2023-11-19T03:10:15;94361.06;;;2.00;96.20
55590;BME280;41452;42.780;23.116;2023-11-19T03:12:41;94295.13;;;1.73;95.65
55590;BME280;41452;42.780;23.116;2023-11-19T03:15:07;94293.53;;;1.72;95.97
55590;BME280;41452;42.780;23.116;2023-11-19T03:17:44;94360.66;;;2.12;96.40
55590;BME280;41452;42.780;23.116;2023-11-19T03:20:11;94352.69;;;2.13;96.36
55590;BME280;41452;42.780;23.116;2023-11-19T03:22:46;94347.50;;;2.13;96.38
55590;BME280;41452;42.780;23.116;2023-11-19T03:25:11;94341.78;;;2.03;96.11
55590;BME280;41452;42.780;23.116;2023-11-19T03:27:38;94325.97;;;1.98;96.43
55590;BME280;41452;42.780;23.116;2023-11-19T03:30:08;94334.31;;;2.08;96.29
55590;BME280;41452;42.780;23.116;2023-11-19T03:32:35;94316.69;;;1.88;96.26
55590;BME280;41452;42.780;23.116;2023-11-19T03:35:01;94358.31;;;2.02;96.66
55590;BME280;41452;42.780;23.116;2023-11-19T03:37:27;94353.75;;;2.04;96.58
55590;BME280;41452;42.780;23.116;2023-11-19T03:39:54;94338.22;;;2.04;96.30
55590;BME280;41452;42.780;23.116;2023-11-19T03:42:20;94324.69;;;1.79;96.33
55590;BME280;41452;42.780;23.116;2023-11-19T03:44:48;94323.78;;;1.71;96.78
55590;BME280;41452;42.780;23.116;2023-11-19T03:47:15;94319.41;;;1.72;96.38
55590;BME280;41452;42.780;23.116;2023-11-19T03:49:40;94397.63;;;2.05;96.99
55590;BME280;41452;42.780;23.116;2023-11-19T03:52:05;94395.47;;;2.09;97.29
55590;BME280;41452;42.780;23.116;2023-11-19T03:54:31;94395.75;;;2.14;96.15
55590;BME280;41452;42.780;23.116;2023-11-19T03:56:58;94395.75;;;2.14;96.10
55590;BME280;41452;42.780;23.116;2023-11-19T03:59:25;94286.41;;;1.36;96.33
55590;BME280;41452;42.780;23.116;2023-11-19T04:01:50;94405.50;;;2.12;96.02
55590;BME280;41452;42.780;23.116;2023-11-19T04:04:16;94367.78;;;1.95;95.87
55590;BME280;41452;42.780;23.116;2023-11-19T04:06:41;94397.38;;;2.15;95.63
55590;BME280;41452;42.780;23.116;2023-11-19T04:09:07;94334.50;;;1.68;96.09
55590;BME280;41452;42.780;23.116;2023-11-19T04:11:32;94375.81;;;1.85;96.13
55590;BME280;41452;42.780;23.116;2023-11-19T04:13:58;94406.91;;;2.00;97.22
55590;BME280;41452;42.780;23.116;2023-11-19T04:16:27;94394.13;;;1.98;97.25
55590;BME280;41452;42.780;23.116;2023-11-19T04:18:53;94414.25;;;2.11;96.80
55590;BME280;41452;42.780;23.116;2023-11-19T04:21:19;94344.31;;;1.58;96.97
55590;BME280;41452;42.780;23.116;2023-11-19T04:23:44;94410.75;;;2.04;96.38
55590;BME280;41452;42.780;23.116;2023-11-19T04:26:09;94361.22;;;1.69;96.62
55590;BME280;41452;42.780;23.116;2023-11-19T04:28:35;94421.88;;;2.27;95.63
55590;BME280;41452;42.780;23.116;2023-11-19T04:31:00;94433.19;;;2.12;96.01
55590;BME280;41452;42.780;23.116;2023-11-19T04:33:25;94406.59;;;1.80;96.94
55590;BME280;41452;42.780;23.116;2023-11-19T04:35:51;94364.94;;;1.66;96.76
55590;BME280;41452;42.780;23.116;2023-11-19T04:38:16;94441.25;;;1.94;96.92
55590;BME280;41452;42.780;23.116;2023-11-19T04:40:41;94434.78;;;1.98;96.70
55590;BME280;41452;42.780;23.116;2023-11-19T04:43:07;94364.66;;;1.61;96.87
55590;BME280;41452;42.780;23.116;2023-11-19T04:45:32;94354.75;;;1.65;96.59
55590;BME280;41452;42.780;23.116;2023-11-19T04:47:58;94391.41;;;1.92;96.64
55590;BME280;41452;42.780;23.116;2023-11-19T04:50:23;94347.53;;;1.60;96.01
55590;BME280;41452;42.780;23.116;2023-11-19T04:52:51;94411.03;;;2.09;96.15
55590;BME280;41452;42.780;23.116;2023-11-19T04:55:16;94400.03;;;2.07;95.70
55590;BME280;41452;42.780;23.116;2023-11-19T04:57:42;94382.69;;;1.93;96.70
55590;BME280;41452;42.780;23.116;2023-11-19T05:00:08;94332.00;;;1.60;96.25
55590;BME280;41452;42.780;23.116;2023-11-19T05:02:36;94427.97;;;2.35;96.63
55590;BME280;41452;42.780;23.116;2023-11-19T05:05:02;94279.97;;;1.32;95.32
55590;BME280;41452;42.780;23.116;2023-11-19T05:07:29;94438.06;;;2.30;95.31
55590;BME280;41452;42.780;23.116;2023-11-19T05:09:55;94438.47;;;2.18;95.69
55590;BME280;41452;42.780;23.116;2023-11-19T05:12:20;94429.09;;;2.17;95.89
55590;BME280;41452;42.780;23.116;2023-11-19T05:14:46;94327.19;;;1.34;96.06
55590;BME280;41452;42.780;23.116;2023-11-19T05:17:15;94443.09;;;2.08;96.22
55590;BME280;41452;42.780;23.116;2023-11-19T05:19:41;94433.66;;;2.15;95.95
55590;BME280;41452;42.780;23.116;2023-11-19T05:22:06;94430.78;;;2.10;95.85
55590;BME280;41452;42.780;23.116;2023-11-19T05:24:32;94265.56;;;0.91;96.94
55590;BME280;41452;42.780;23.116;2023-11-19T05:26:58;94293.97;;;1.23;96.25
55590;BME280;41452;42.780;23.116;2023-11-19T05:29:23;94433.81;;;2.14;96.32
55590;BME280;41452;42.780;23.116;2023-11-19T05:31:49;94434.97;;;2.11;95.79
55590;BME280;41452;42.780;23.116;2023-11-19T05:34:14;94434.88;;;2.04;96.40
55590;BME280;41452;42.780;23.116;2023-11-19T05:36:40;94321.56;;;1.30;96.64
55590;BME280;41452;42.780;23.116;2023-11-19T05:39:05;94442.59;;;1.89;96.76
55590;BME280;41452;42.780;23.116;2023-11-19T05:41:31;94429.28;;;1.78;97.09
55590;BME280;41452;42.780;23.116;2023-11-19T05:43:56;94391.81;;;1.42;98.01
55590;BME280;41452;42.780;23.116;2023-11-19T05:46:22;94444.56;;;1.87;97.78
55590;BME280;41452;42.780;23.116;2023-11-19T05:48:48;94433.78;;;1.76;97.80
55590;BME280;41452;42.780;23.116;2023-11-19T05:51:13;94469.81;;;2.08;98.00
55590;BME280;41452;42.780;23.116;2023-11-19T05:53:40;94458.09;;;1.98;96.42
55590;BME280;41452;42.780;23.116;2023-11-19T05:56:06;94472.22;;;2.10;97.31
55590;BME280;41452;42.780;23.116;2023-11-19T05:58:35;94478.66;;;2.14;95.97
55590;BME280;41452;42.780;23.116;2023-11-19T06:01:01;94485.25;;;2.02;96.58
55590;BME280;41452;42.780;23.116;2023-11-19T06:03:27;94496.06;;;2.05;97.04
55590;BME280;41452;42.780;23.116;2023-11-19T06:05:53;94486.03;;;2.02;95.83
55590;BME280;41452;42.780;23.116;2023-11-19T06:08:19;94481.44;;;1.89;97.42
55590;BME280;41452;42.780;23.116;2023-11-19T06:10:46;94456.94;;;1.77;96.24
55590;BME280;41452;42.780;23.116;2023-11-19T06:13:14;94483.53;;;1.94;96.04
55590;BME280;41452;42.780;23.116;2023-11-19T06:15:44;94398.88;;;1.48;96.38
55590;BME280;41452;42.780;23.116;2023-11-19T06:18:09;94479.25;;;2.01;96.37
55590;BME280;41452;42.780;23.116;2023-11-19T06:20:37;94476.25;;;1.89;96.50
55590;BME280;41452;42.780;23.116;2023-11-19T06:23:02;94475.47;;;1.89;95.70
55590;BME280;41452;42.780;23.116;2023-11-19T06:25:27;94484.63;;;2.00;95.37
55590;BME280;41452;42.780;23.116;2023-11-19T06:27:53;94488.38;;;1.97;95.96
55590;BME280;41452;42.780;23.116;2023-11-19T06:30:19;94476.25;;;2.13;94.35
55590;BME280;41452;42.780;23.116;2023-11-19T06:32:45;94473.97;;;1.95;94.35
55590;BME280;41452;42.780;23.116;2023-11-19T06:35:11;94505.97;;;2.02;95.24
55590;BME280;41452;42.780;23.116;2023-11-19T06:37:38;94486.28;;;1.93;95.20
55590;BME280;41452;42.780;23.116;2023-11-19T06:40:04;94476.03;;;1.99;94.48
55590;BME280;41452;42.780;23.116;2023-11-19T06:42:30;94510.38;;;2.16;94.83
55590;BME280;41452;42.780;23.116;2023-11-19T06:44:56;94464.69;;;1.77;93.50
55590;BME280;41452;42.780;23.116;2023-11-19T06:47:25;94473.38;;;1.84;94.59
55590;BME280;41452;42.780;23.116;2023-11-19T06:49:50;94503.25;;;1.95;94.95
55590;BME280;41452;42.780;23.116;2023-11-19T06:52:16;94492.84;;;2.03;94.43
55590;BME280;41452;42.780;23.116;2023-11-19T06:54:41;94488.59;;;1.87;94.90
55590;BME280;41452;42.780;23.116;2023-11-19T06:57:07;94517.59;;;2.06;94.70
55590;BME280;41452;42.780;23.116;2023-11-19T06:59:34;94418.63;;;1.49;94.67
55590;BME280;41452;42.780;23.116;2023-11-19T07:02:00;94457.63;;;1.71;94.67
55590;BME280;41452;42.780;23.116;2023-11-19T07:04:25;94486.28;;;1.69;95.19
55590;BME280;41452;42.780;23.116;2023-11-19T07:06:50;94486.44;;;1.68;95.68
55590;BME280;41452;42.780;23.116;2023-11-19T07:09:18;94521.78;;;2.07;94.59
55590;BME280;41452;42.780;23.116;2023-11-19T07:11:44;94462.81;;;1.71;94.76
55590;BME280;41452;42.780;23.116;2023-11-19T07:14:11;94522.50;;;2.01;95.06
55590;BME280;41452;42.780;23.116;2023-11-19T07:16:37;94473.34;;;1.93;93.01
55590;BME280;41452;42.780;23.116;2023-11-19T07:19:04;94489.03;;;1.91;93.62
55590;BME280;41452;42.780;23.116;2023-11-19T07:21:31;94518.97;;;2.17;92.55
55590;BME280;41452;42.780;23.116;2023-11-19T07:23:59;94518.72;;;2.26;92.47
55590;BME280;41452;42.780;23.116;2023-11-19T07:26:25;94526.09;;;2.38;92.65
55590;BME280;41452;42.780;23.116;2023-11-19T07:28:50;94481.09;;;1.93;92.83
55590;BME280;41452;42.780;23.116;2023-11-19T07:31:16;94509.09;;;2.20;92.21
55590;BME280;41452;42.780;23.116;2023-11-19T07:33:44;94525.22;;;2.45;92.29
55590;BME280;41452;42.780;23.116;2023-11-19T07:36:10;94533.53;;;2.41;92.64
55590;BME280;41452;42.780;23.116;2023-11-19T07:38:36;94483.56;;;2.09;91.86
55590;BME280;41452;42.780;23.116;2023-11-19T07:41:02;94453.66;;;1.83;91.90
55590;BME280;41452;42.780;23.116;2023-11-19T07:43:27;94448.84;;;1.95;92.23
55590;BME280;41452;42.780;23.116;2023-11-19T07:45:53;94512.97;;;2.16;93.54
55590;BME280;41452;42.780;23.116;2023-11-19T07:48:18;94486.94;;;2.09;93.10
55590;BME280;41452;42.780;23.116;2023-11-19T07:50:49;94501.19;;;2.14;92.95
55590;BME280;41452;42.780;23.116;2023-11-19T07:53:18;94523.94;;;2.41;92.90
55590;BME280;41452;42.780;23.116;2023-11-19T07:55:43;94514.31;;;2.50;93.14
55590;BME280;41452;42.780;23.116;2023-11-19T07:58:10;94460.13;;;2.02;93.12
55590;BME280;41452;42.780;23.116;2023-11-19T08:00:36;94529.97;;;2.42;92.90
55590;BME280;41452;42.780;23.116;2023-11-19T08:03:02;94540.94;;;2.44;92.24
55590;BME280;41452;42.780;23.116;2023-11-19T08:05:28;94503.97;;;2.27;93.57
55590;BME280;41452;42.780;23.116;2023-11-19T08:07:53;94533.28;;;2.51;93.15
55590;BME280;41452;42.780;23.116;2023-11-19T08:10:19;94474.59;;;1.97;92.95
55590;BME280;41452;42.780;23.116;2023-11-19T08:12:45;94478.56;;;2.07;92.59
55590;BME280;41452;42.780;23.116;2023-11-19T08:15:10;94524.94;;;2.40;93.65
55590;BME280;41452;42.780;23.116;2023-11-19T08:17:36;94528.69;;;2.38;92.64
55590;BME280;41452;42.780;23.116;2023-11-19T08:20:02;94500.31;;;2.21;93.09
55590;BME280;41452;42.780;23.116;2023-11-19T08:22:30;94496.81;;;2.14;92.50
55590;BME280;41452;42.780;23.116;2023-11-19T08:24:55;94551.16;;;2.45;91.93
55590;BME280;41452;42.780;23.116;2023-11-19T08:27:21;94496.19;;;2.12;92.37
55590;BME280;41452;42.780;23.116;2023-11-19T08:29:53;94530.75;;;2.42;91.38
55590;BME280;41452;42.780;23.116;2023-11-19T08:32:20;94569.66;;;2.57;92.13
55590;BME280;41452;42.780;23.116;2023-11-19T08:34:46;94583.09;;;2.38;92.24
55590;BME280;41452;42.780;23.116;2023-11-19T08:37:11;94583.56;;;2.41;92.77
55590;BME280;41452;42.780;23.116;2023-11-19T08:39:37;94575.00;;;2.41;92.81
55590;BME280;41452;42.780;23.116;2023-11-19T08:42:03;94577.44;;;2.57;91.97
55590;BME280;41452;42.780;23.116;2023-11-19T08:44:28;94570.41;;;2.66;92.90
55590;BME280;41452;42.780;23.116;2023-11-19T08:46:53;94569.16;;;2.62;91.24
55590;BME280;41452;42.780;23.116;2023-11-19T08:49:19;94563.81;;;2.40;91.64
55590;BME280;41452;42.780;23.116;2023-11-19T08:51:44;94577.34;;;2.74;91.76
55590;BME280;41452;42.780;23.116;2023-11-19T08:54:10;94510.91;;;2.35;90.89
55590;BME280;41452;42.780;23.116;2023-11-19T08:56:36;94578.53;;;3.01;89.80
55590;BME280;41452;42.780;23.116;2023-11-19T08:59:02;94580.50;;;3.14;88.93
55590;BME280;41452;42.780;23.116;2023-11-19T09:01:27;94591.50;;;3.16;88.17
55590;BME280;41452;42.780;23.116;2023-11-19T09:03:53;94593.69;;;3.27;89.09
55590;BME280;41452;42.780;23.116;2023-11-19T09:06:19;94567.53;;;3.29;90.21
55590;BME280;41452;42.780;23.116;2023-11-19T09:08:44;94581.75;;;3.48;87.81
55590;BME280;41452;42.780;23.116;2023-11-19T09:11:10;94556.78;;;3.47;87.80
55590;BME280;41452;42.780;23.116;2023-11-19T09:13:35;94580.88;;;3.55;87.96
55590;BME280;41452;42.780;23.116;2023-11-19T09:16:01;94547.50;;;3.08;86.63
55590;BME280;41452;42.780;23.116;2023-11-19T09:18:29;94583.09;;;3.43;87.53
55590;BME280;41452;42.780;23.116;2023-11-19T09:20:55;94557.06;;;3.22;87.08
55590;BME280;41452;42.780;23.116;2023-11-19T09:23:20;94593.56;;;3.35;87.36
55590;BME280;41452;42.780;23.116;2023-11-19T09:25:46;94603.59;;;3.23;86.46
55590;BME280;41452;42.780;23.116;2023-11-19T09:28:11;94587.75;;;3.18;87.53
55590;BME280;41452;42.780;23.116;2023-11-19T09:30:39;94533.78;;;2.99;87.11
55590;BME280;41452;42.780;23.116;2023-11-19T09:33:05;94566.00;;;3.34;87.68
55590;BME280;41452;42.780;23.116;2023-11-19T09:35:31;94536.31;;;3.22;88.73
55590;BME280;41452;42.780;23.116;2023-11-19T09:37:56;94513.56;;;2.94;88.66
55590;BME280;41452;42.780;23.116;2023-11-19T09:40:22;94536.63;;;3.34;88.26
55590;BME280;41452;42.780;23.116;2023-11-19T09:42:47;94535.94;;;3.40;88.44
55590;BME280;41452;42.780;23.116;2023-11-19T09:45:15;94523.59;;;3.27;88.15
55590;BME280;41452;42.780;23.116;2023-11-19T09:47:45;94508.28;;;3.32;88.60
55590;BME280;41452;42.780;23.116;2023-11-19T09:50:16;94530.16;;;3.59;87.89
55590;BME280;41452;42.780;23.116;2023-11-19T09:52:43;94532.50;;;3.54;87.36
55590;BME280;41452;42.780;23.116;2023-11-19T09:55:08;94531.44;;;3.34;88.06
55590;BME280;41452;42.780;23.116;2023-11-19T09:57:34;94523.66;;;3.19;88.18
55590;BME280;41452;42.780;23.116;2023-11-19T10:00:02;94520.81;;;2.99;88.67
55590;BME280;41452;42.780;23.116;2023-11-19T10:02:31;94484.47;;;2.84;90.12
55590;BME280;41452;42.780;23.116;2023-11-19T10:04:59;94518.31;;;3.20;89.99
55590;BME280;41452;42.780;23.116;2023-11-19T10:07:26;94506.84;;;3.00;88.69
55590;BME280;41452;42.780;23.116;2023-11-19T10:09:52;94506.13;;;2.91;88.73
55590;BME280;41452;42.780;23.116;2023-11-19T10:12:18;94412.13;;;2.30;89.54
55590;BME280;41452;42.780;23.116;2023-11-19T10:14:44;94473.31;;;2.69;88.13
55590;BME280;41452;42.780;23.116;2023-11-19T10:17:10;94540.22;;;2.88;88.74
55590;BME280;41452;42.780;23.116;2023-11-19T10:19:35;94526.88;;;2.91;89.15
55590;BME280;41452;42.780;23.116;2023-11-19T10:22:04;94525.47;;;3.03;88.01
55590;BME280;41452;42.780;23.116;2023-11-19T10:24:32;94518.56;;;2.96;88.36
55590;BME280;41452;42.780;23.116;2023-11-19T10:27:04;94509.16;;;2.95;87.95
55590;BME280;41452;42.780;23.116;2023-11-19T10:29:36;94473.03;;;2.63;88.61
55590;BME280;41452;42.780;23.116;2023-11-19T10:32:01;94514.09;;;2.75;88.07
55590;BME280;41452;42.780;23.116;2023-11-19T10:34:27;94507.75;;;2.92;88.74
55590;BME280;41452;42.780;23.116;2023-11-19T10:36:53;94489.78;;;2.76;89.26
55590;BME280;41452;42.780;23.116;2023-11-19T10:39:19;94510.34;;;2.92;88.91
55590;BME280;41452;42.780;23.116;2023-11-19T10:41:46;94512.59;;;2.95;89.15
55590;BME280;41452;42.780;23.116;2023-11-19T10:44:11;94516.25;;;3.01;89.40
55590;BME280;41452;42.780;23.116;2023-11-19T10:46:38;94513.31;;;3.04;88.80
55590;BME280;41452;42.780;23.116;2023-11-19T10:49:05;94520.09;;;3.20;88.23
55590;BME280;41452;42.780;23.116;2023-11-19T10:51:31;94514.19;;;3.26;87.40
55590;BME280;41452;42.780;23.116;2023-11-19T10:54:02;94504.88;;;3.17;87.95
55590;BME280;41452;42.780;23.116;2023-11-19T10:56:32;94510.97;;;3.09;87.43
55590;BME280;41452;42.780;23.116;2023-11-19T10:58:59;94474.22;;;2.76;88.98
55590;BME280;41452;42.780;23.116;2023-11-19T11:01:28;94493.34;;;3.04;88.58
55590;BME280;41452;42.780;23.116;2023-11-19T11:03:59;94496.03;;;3.11;88.37
55590;BME280;41452;42.780;23.116;2023-11-19T11:06:27;94444.59;;;2.85;89.53
55590;BME280;41452;42.780;23.116;2023-11-19T11:08:54;94467.91;;;3.30;86.28
55590;BME280;41452;42.780;23.116;2023-11-19T11:11:20;94442.97;;;2.84;88.30
55590;BME280;41452;42.780;23.116;2023-11-19T11:13:50;94468.56;;;3.17;87.85
55590;BME280;41452;42.780;23.116;2023-11-19T11:16:18;94465.69;;;3.12;88.63
55590;BME280;41452;42.780;23.116;2023-11-19T11:18:45;94453.94;;;3.16;88.92
55590;BME280;41452;42.780;23.116;2023-11-19T11:21:17;94455.53;;;3.47;88.28
55590;BME280;41452;42.780;23.116;2023-11-19T11:24:14;94463.44;;;3.60;86.59
55590;BME280;41452;42.780;23.116;2023-11-19T11:37:41;94441.19;;;3.72;85.53
55590;BME280;41452;42.780;23.116;2023-11-19T11:40:14;94422.56;;;3.69;85.95
55590;BME280;41452;42.780;23.116;2023-11-19T11:42:41;94416.44;;;3.76;85.18
55590;BME280;41452;42.780;23.116;2023-11-19T11:45:11;94441.88;;;3.81;85.06
55590;BME280;41452;42.780;23.116;2023-11-19T11:50:12;94428.34;;;3.86;84.78
55590;BME280;41452;42.780;23.116;2023-11-19T11:55:28;94447.56;;;3.70;84.30
55590;BME280;41452;42.780;23.116;2023-11-19T11:57:59;94439.38;;;3.73;84.90
55590;BME280;41452;42.780;23.116;2023-11-19T12:00:39;94442.66;;;3.81;86.33
55590;BME280;41452;42.780;23.116;2023-11-19T12:03:06;94436.94;;;3.86;86.10
55590;BME280;41452;42.780;23.116;2023-11-19T12:05:44;94386.03;;;3.70;86.93
55590;BME280;41452;42.780;23.116;2023-11-19T12:08:11;94385.66;;;3.73;86.95
55590;BME280;41452;42.780;23.116;2023-11-19T12:10:46;94414.47;;;4.00;86.53
55590;BME280;41452;42.780;23.116;2023-11-19T12:13:14;94385.88;;;4.00;86.43
55590;BME280;41452;42.780;23.116;2023-11-19T12:16:06;94408.50;;;4.06;84.77
55590;BME280;41452;42.780;23.116;2023-11-19T12:18:32;94383.88;;;4.02;84.74
55590;BME280;41452;42.780;23.116;2023-11-19T12:20:59;94401.25;;;4.30;85.46
55590;BME280;41452;42.780;23.116;2023-11-19T12:23:26;94409.47;;;4.27;85.89
55590;BME280;41452;42.780;23.116;2023-11-19T12:25:52;94392.78;;;4.14;85.68
55590;BME280;41452;42.780;23.116;2023-11-19T12:28:17;94371.88;;;4.01;85.86
55590;BME280;41452;42.780;23.116;2023-11-19T12:30:44;94399.50;;;4.37;84.84
55590;BME280;41452;42.780;23.116;2023-11-19T12:33:10;94389.28;;;4.29;83.89
55590;BME280;41452;42.780;23.116;2023-11-19T12:35:46;94386.72;;;4.35;83.71
55590;BME280;41452;42.780;23.116;2023-11-19T12:38:22;94395.59;;;4.48;83.26
55590;BME280;41452;42.780;23.116;2023-11-19T12:43:29;94387.81;;;4.54;83.38
55590;BME280;41452;42.780;23.116;2023-11-19T12:45:55;94389.06;;;4.59;83.30
55590;BME280;41452;42.780;23.116;2023-11-19T12:48:20;94383.91;;;4.30;83.36
55590;BME280;41452;42.780;23.116;2023-11-19T12:50:57;94374.91;;;4.33;84.30
55590;BME280;41452;42.780;23.116;2023-11-19T12:53:24;94394.97;;;4.46;84.18
55590;BME280;41452;42.780;23.116;2023-11-19T12:55:51;94388.22;;;4.51;84.39
55590;BME280;41452;42.780;23.116;2023-11-19T12:58:29;94389.97;;;4.44;85.11
55590;BME280;41452;42.780;23.116;2023-11-19T13:01:05;94379.97;;;4.41;85.33
55590;BME280;41452;42.780;23.116;2023-11-19T13:03:33;94378.19;;;4.48;85.13
55590;BME280;41452;42.780;23.116;2023-11-19T13:06:06;94380.59;;;4.50;83.37
55590;BME280;41452;42.780;23.116;2023-11-19T13:08:41;94370.59;;;4.47;85.13
55590;BME280;41452;42.780;23.116;2023-11-19T13:11:07;94334.81;;;4.21;83.48
55590;BME280;41452;42.780;23.116;2023-11-19T13:13:53;94345.50;;;4.32;84.54
55590;BME280;41452;42.780;23.116;2023-11-19T13:16:18;94375.25;;;4.58;83.52
55590;BME280;41452;42.780;23.116;2023-11-19T13:18:44;94369.00;;;4.52;82.82